createdAt,value
2022-09-25T00:00:56.344Z,12.88
2022-09-25T00:06:03.398Z,12.89
2022-09-25T00:11:07.958Z,12.86
2022-09-25T00:16:11.669Z,12.87
2022-09-25T00:21:15.117Z,12.79
2022-09-25T00:26:18.136Z,12.71
2022-09-25T00:31:24.593Z,12.70
2022-09-25T00:36:26.873Z,12.70
2022-09-25T00:41:32.560Z,12.62
2022-09-25T00:46:39.357Z,12.47
2022-09-25T00:51:47.757Z,12.35
2022-09-25T00:56:52.387Z,12.14
2022-09-25T01:01:55.306Z,12.21
2022-09-25T01:06:57.449Z,12.27
2022-09-25T01:11:59.055Z,12.33
2022-09-25T01:17:20.541Z,12.34
2022-09-25T01:23:00.047Z,12.45
2022-09-25T01:28:07.373Z,12.45
2022-09-25T01:33:18.421Z,12.42
2022-09-25T01:38:34.557Z,12.43
2022-09-25T01:43:49.920Z,12.37
2022-09-25T01:49:02.833Z,12.27
2022-09-25T01:54:10.959Z,12.17
2022-09-25T01:59:30.216Z,12.19
2022-09-25T02:04:38.407Z,12.24
2022-09-25T02:09:51.478Z,12.30
2022-09-25T02:14:58.183Z,12.38
2022-09-25T02:20:18.553Z,12.38
2022-09-25T02:25:31.812Z,12.40
2022-09-25T02:30:34.129Z,12.42
2022-09-25T02:35:35.793Z,12.40
2022-09-25T02:40:46.444Z,12.42
2022-09-25T02:46:03.697Z,12.33
2022-09-25T02:51:24.998Z,12.20
2022-09-25T02:56:41.123Z,12.13
2022-09-25T03:01:43.589Z,12.16
2022-09-25T03:06:46.324Z,12.14
2022-09-25T03:11:48.297Z,12.14
2022-09-25T03:16:53.091Z,12.23
2022-09-25T03:21:55.239Z,12.25
2022-09-25T03:26:57.136Z,12.28
2022-09-25T03:31:59.039Z,12.26
2022-09-25T03:37:00.613Z,12.23
2022-09-25T03:42:02.181Z,12.23
2022-09-25T03:47:03.773Z,12.22
2022-09-25T03:52:06.125Z,12.17
2022-09-25T03:57:12.773Z,12.04
2022-09-25T04:02:14.575Z,11.90
2022-09-25T04:07:16.761Z,11.82
2022-09-25T04:12:18.498Z,11.70
2022-09-25T04:17:20.409Z,11.66
2022-09-25T04:22:22.019Z,11.61
2022-09-25T04:27:24.363Z,11.56
2022-09-25T04:32:44.291Z,11.51
2022-09-25T04:37:45.886Z,11.51
2022-09-25T04:42:47.494Z,11.57
2022-09-25T04:47:49.125Z,11.56
2022-09-25T04:52:51.445Z,11.60
2022-09-25T04:58:01.466Z,11.63
2022-09-25T05:03:04.499Z,11.63
2022-09-25T05:08:06.260Z,11.58
2022-09-25T05:13:09.260Z,11.60
2022-09-25T05:18:18.572Z,11.60
2022-09-25T05:23:21.004Z,11.66
2022-09-25T05:28:24.716Z,11.71
2022-09-25T05:33:26.612Z,11.77
2022-09-25T05:38:29.096Z,11.81
2022-09-25T05:43:32.108Z,11.86
2022-09-25T05:48:33.696Z,11.89
2022-09-25T05:53:35.873Z,11.95
2022-09-25T05:58:38.888Z,12.00
2022-09-25T06:03:40.561Z,12.04
2022-09-25T06:08:42.641Z,12.05
2022-09-25T06:13:48.573Z,12.13
2022-09-25T06:18:53.745Z,12.21
2022-09-25T06:23:55.874Z,12.35
2022-09-25T06:29:03.155Z,12.35
2022-09-25T06:34:06.076Z,12.49
2022-09-25T06:39:08.545Z,12.59
2022-09-25T06:44:10.539Z,12.72
2022-09-25T06:49:13.378Z,12.80
2022-09-25T06:54:15.260Z,12.95
2022-09-25T06:59:17.231Z,13.08
2022-09-25T07:04:18.997Z,13.16
2022-09-25T07:09:21.070Z,13.24
2022-09-25T07:14:22.675Z,13.25
2022-09-25T07:19:27.673Z,13.12
2022-09-25T07:24:29.996Z,13.19
2022-09-25T07:29:32.001Z,13.36
2022-09-25T07:34:37.641Z,13.33
2022-09-25T07:39:39.398Z,13.18
2022-09-25T07:44:46.041Z,13.35
2022-09-25T07:49:50.021Z,13.54
2022-09-25T07:54:51.604Z,13.68
2022-09-25T07:59:53.264Z,13.65
2022-09-25T08:04:55.054Z,13.92
2022-09-25T08:09:56.677Z,14.16
2022-09-25T08:14:58.284Z,14.33
2022-09-25T08:20:01.075Z,14.40
2022-09-25T08:25:03.338Z,14.52
2022-09-25T08:30:06.735Z,14.59
2022-09-25T08:35:08.978Z,14.60
2022-09-25T08:40:18.714Z,14.67
2022-09-25T08:45:46.790Z,14.72
2022-09-25T08:50:49.461Z,14.78
2022-09-25T08:56:10.923Z,14.81
2022-09-25T09:01:17.345Z,14.88
2022-09-25T09:06:20.660Z,14.95
2022-09-25T09:11:46.294Z,14.97
2022-09-25T09:17:05.094Z,14.99
2022-09-25T09:22:10.624Z,15.03
2022-09-25T09:27:21.300Z,15.08
2022-09-25T09:32:48.623Z,15.11
2022-09-25T09:38:16.030Z,15.03
2022-09-25T09:43:34.668Z,14.99
2022-09-25T09:49:01.983Z,15.03
2022-09-25T09:54:21.002Z,15.08
2022-09-25T09:59:27.653Z,15.13
2022-09-25T10:04:36.201Z,15.14
2022-09-25T10:09:38.424Z,15.23
2022-09-25T10:14:44.930Z,15.30
2022-09-25T10:19:58.313Z,15.34
2022-09-25T10:25:05.454Z,15.22
2022-09-25T10:30:10.130Z,15.27
2022-09-25T10:35:20.317Z,15.30
2022-09-25T10:40:47.721Z,15.36
2022-09-25T10:46:11.751Z,15.41
2022-09-25T10:51:21.300Z,15.46
2022-09-25T10:56:36.344Z,15.49
2022-09-25T11:01:42.849Z,15.58
2022-09-25T11:06:49.241Z,15.52
2022-09-25T11:11:54.269Z,15.53
2022-09-25T11:16:57.942Z,15.45
2022-09-25T11:22:17.903Z,15.34
2022-09-25T11:27:22.272Z,15.17
2022-09-25T11:32:37.350Z,15.15
2022-09-25T11:37:49.417Z,15.24
2022-09-25T11:43:04.295Z,15.23
2022-09-25T11:48:13.581Z,15.12
2022-09-25T11:53:34.405Z,15.06
2022-09-25T11:58:56.782Z,15.08
2022-09-25T12:04:07.312Z,15.20
2022-09-25T12:09:32.315Z,15.31
2022-09-25T12:14:45.619Z,15.43
2022-09-25T12:19:56.113Z,15.37
2022-09-25T12:25:02.918Z,15.32
2022-09-25T12:30:23.359Z,15.44
2022-09-25T12:35:46.783Z,15.43
2022-09-25T12:40:55.994Z,15.49
2022-09-25T12:46:23.323Z,15.51
2022-09-25T12:51:45.757Z,15.53
2022-09-25T12:57:15.818Z,15.43
2022-09-25T13:02:46.783Z,15.37
2022-09-25T13:07:53.001Z,15.36
2022-09-25T13:12:59.197Z,15.24
2022-09-25T13:18:01.534Z,15.15
2022-09-25T13:23:13.677Z,15.22
2022-09-25T13:28:31.125Z,15.18
2022-09-25T13:34:02.564Z,15.16
2022-09-25T13:39:35.398Z,15.23
2022-09-25T13:44:37.860Z,15.30
2022-09-25T13:50:18.616Z,15.33
2022-09-25T13:55:21.382Z,15.39
2022-09-25T14:00:27.418Z,15.59
2022-09-25T14:05:36.078Z,15.62
2022-09-25T14:10:43.153Z,15.59
2022-09-25T14:15:47.053Z,15.66
2022-09-25T14:20:51.918Z,15.69
2022-09-25T14:26:01.984Z,15.81
2022-09-25T14:31:21.918Z,15.89
2022-09-25T14:36:39.007Z,15.83
2022-09-25T14:42:17.140Z,15.80
2022-09-25T14:47:20.419Z,15.87
2022-09-25T14:52:27.001Z,15.78
2022-09-25T14:57:36.305Z,15.57
2022-09-25T15:02:41.352Z,15.49
2022-09-25T15:07:45.055Z,15.58
2022-09-25T15:12:46.814Z,15.54
2022-09-25T15:17:53.054Z,15.51
2022-09-25T15:23:06.661Z,15.60
2022-09-25T15:28:12.520Z,15.51
2022-09-25T15:33:32.151Z,15.43
2022-09-25T15:38:36.402Z,15.39
2022-09-25T15:43:38.074Z,15.30
2022-09-25T15:48:54.157Z,15.20
2022-09-25T15:54:02.043Z,15.24
2022-09-25T15:59:14.713Z,15.30
2022-09-25T16:04:43.027Z,15.32
2022-09-25T16:09:47.398Z,15.34
2022-09-25T16:14:50.577Z,15.33
2022-09-25T16:20:04.654Z,15.27
2022-09-25T16:25:31.218Z,15.27
2022-09-25T16:30:34.618Z,15.26
2022-09-25T16:36:05.294Z,15.22
2022-09-25T16:41:22.005Z,15.08
2022-09-25T16:46:24.240Z,15.12
2022-09-25T16:51:27.810Z,15.07
2022-09-25T16:56:31.758Z,15.05
2022-09-25T17:01:34.903Z,15.06
2022-09-25T17:06:40.773Z,15.05
2022-09-25T17:11:45.555Z,14.82
2022-09-25T17:16:47.401Z,14.89
2022-09-25T17:21:51.433Z,14.95
2022-09-25T17:26:54.483Z,14.98
2022-09-25T17:31:56.062Z,14.77
2022-09-25T17:37:11.857Z,14.76
2022-09-25T17:42:13.594Z,14.56
2022-09-25T17:47:16.193Z,14.64
2022-09-25T17:52:20.658Z,14.66
2022-09-25T17:57:22.222Z,14.41
2022-09-25T18:02:25.947Z,14.52
2022-09-25T18:07:32.722Z,14.57
2022-09-25T18:12:35.405Z,14.62
2022-09-25T18:17:37.008Z,14.55
2022-09-25T18:22:39.018Z,14.47
2022-09-25T18:27:41.808Z,14.37
2022-09-25T18:32:44.338Z,14.33
2022-09-25T18:37:47.098Z,14.40
2022-09-25T18:42:48.870Z,14.36
2022-09-25T18:47:50.546Z,14.48
2022-09-25T18:52:52.769Z,14.43
2022-09-25T18:57:55.183Z,14.39
2022-09-25T19:02:57.111Z,14.52
2022-09-25T19:07:59.083Z,14.51
2022-09-25T19:13:01.153Z,14.60
2022-09-25T19:18:02.818Z,14.66
2022-09-25T19:23:06.057Z,14.65
2022-09-25T19:28:07.924Z,14.66
2022-09-25T19:33:09.546Z,14.73
2022-09-25T19:38:12.835Z,14.79
2022-09-25T19:43:15.066Z,14.85
2022-09-25T19:48:17.240Z,14.85
2022-09-25T19:53:19.040Z,14.79
2022-09-25T19:58:24.554Z,14.78
2022-09-25T20:03:26.462Z,14.73
2022-09-25T20:08:28.121Z,14.62
2022-09-25T20:13:29.783Z,14.60
2022-09-25T20:18:31.570Z,14.59
2022-09-25T20:23:33.703Z,14.62
2022-09-25T20:28:37.460Z,14.41
2022-09-25T20:33:39.863Z,14.36
2022-09-25T20:38:42.382Z,14.32
2022-09-25T20:43:46.991Z,14.37
2022-09-25T20:48:51.413Z,14.37
2022-09-25T20:53:58.119Z,14.20
2022-09-25T20:59:00.843Z,14.27
2022-09-25T21:04:07.106Z,14.20
2022-09-25T21:09:18.523Z,14.29
2022-09-25T21:14:28.131Z,14.40
2022-09-25T21:19:29.742Z,14.43
2022-09-25T21:24:31.529Z,14.47
2022-09-25T21:29:33.878Z,14.46
2022-09-25T21:34:35.467Z,14.52
2022-09-25T21:39:37.421Z,14.57
2022-09-25T21:44:39.197Z,14.59
2022-09-25T21:49:40.955Z,14.58
2022-09-25T21:54:42.546Z,14.54
2022-09-25T21:59:44.320Z,14.48
2022-09-25T22:04:46.430Z,14.48
2022-09-25T22:09:48.051Z,14.59
2022-09-25T22:14:51.122Z,14.61
2022-09-25T22:19:52.867Z,14.66
2022-09-25T22:24:54.572Z,14.70
2022-09-25T22:29:56.570Z,14.72
2022-09-25T22:34:58.134Z,14.72
2022-09-25T22:39:59.700Z,14.74
2022-09-25T22:45:01.272Z,14.78
2022-09-25T22:50:03.648Z,14.79
2022-09-25T22:55:05.572Z,14.76
2022-09-25T23:00:10.045Z,14.79
2022-09-25T23:05:12.701Z,14.81
2022-09-25T23:10:14.384Z,14.78
2022-09-25T23:15:16.197Z,14.79
2022-09-25T23:20:18.567Z,14.80
2022-09-25T23:25:20.402Z,14.77
2022-09-25T23:30:22.042Z,14.79
2022-09-25T23:35:23.609Z,14.79
2022-09-25T23:40:25.952Z,14.80
2022-09-25T23:45:28.373Z,14.80
2022-09-25T23:50:31.091Z,14.80
2022-09-25T23:55:33.597Z,14.80
